createdAt,value
2018-12-06T00:02:01.069Z,10.20
2018-12-06T00:04:28.485Z,14.27
2018-12-06T00:06:56.498Z,12.73
2018-12-06T00:09:23.954Z,13.00
2018-12-06T00:11:51.363Z,11.23
2018-12-06T00:14:18.793Z,14.23
2018-12-06T00:16:46.207Z,11.52
2018-12-06T00:19:13.612Z,12.82
2018-12-06T00:21:41.026Z,11.65
2018-12-06T00:24:08.477Z,11.52
2018-12-06T00:26:35.883Z,10.30
2018-12-06T00:29:03.309Z,12.65
2018-12-06T00:31:30.757Z,13.38
2018-12-06T00:33:58.146Z,11.85
2018-12-06T00:36:25.561Z,11.88
2018-12-06T00:38:53.005Z,12.50
2018-12-06T00:41:20.409Z,11.45
2018-12-06T00:43:47.832Z,12.75
2018-12-06T00:46:15.243Z,9.35
2018-12-06T00:48:42.655Z,10.45
2018-12-06T00:51:10.060Z,9.85
2018-12-06T00:53:37.498Z,8.10
2018-12-06T00:56:04.915Z,9.93
2018-12-06T00:58:32.321Z,9.65
2018-12-06T01:00:59.737Z,10.45
2018-12-06T01:03:27.181Z,7.00
2018-12-06T01:05:54.643Z,9.00
2018-12-06T01:08:22.072Z,6.20
2018-12-06T01:10:49.467Z,3.95
2018-12-06T01:13:16.881Z,5.80
2018-12-06T01:15:44.323Z,6.75
2018-12-06T01:18:11.739Z,8.40
2018-12-06T01:20:39.132Z,5.68
2018-12-06T01:23:06.543Z,8.13
2018-12-06T01:25:33.950Z,7.40
2018-12-06T01:28:01.369Z,7.95
2018-12-06T01:30:28.784Z,7.00
2018-12-06T01:32:56.221Z,6.57
2018-12-06T01:35:23.636Z,6.93
2018-12-06T01:37:51.135Z,6.68
2018-12-06T01:40:18.563Z,6.25
2018-12-06T01:42:45.994Z,6.85
2018-12-06T01:45:13.403Z,5.80
2018-12-06T01:47:40.812Z,4.10
2018-12-06T01:50:08.350Z,3.70
2018-12-06T01:52:35.783Z,4.03
2018-12-06T01:55:04.043Z,3.42
2018-12-06T01:57:32.362Z,2.45
2018-12-06T01:59:59.770Z,1.92
2018-12-06T02:02:27.172Z,2.15
2018-12-06T02:04:54.576Z,2.00
2018-12-06T02:07:21.973Z,1.40
2018-12-06T02:09:49.397Z,1.60
2018-12-06T02:12:16.852Z,1.52
2018-12-06T02:14:44.263Z,1.67
2018-12-06T02:17:11.681Z,1.30
2018-12-06T02:19:39.737Z,1.40
2018-12-06T02:22:07.147Z,1.50
2018-12-06T02:24:34.557Z,1.52
2018-12-06T02:27:02.035Z,1.90
2018-12-06T02:29:29.447Z,1.98
2018-12-06T02:31:56.853Z,1.60
2018-12-06T02:34:24.278Z,1.50
2018-12-06T02:36:51.681Z,2.25
2018-12-06T02:39:19.089Z,2.35
2018-12-06T02:41:46.499Z,1.20
2018-12-06T02:44:14.618Z,2.25
2018-12-06T02:46:42.021Z,1.95
2018-12-06T02:49:09.572Z,2.28
2018-12-06T02:51:36.997Z,2.30
2018-12-06T02:54:04.415Z,1.65
2018-12-06T02:56:31.822Z,2.15
2018-12-06T02:58:59.229Z,1.58
2018-12-06T03:01:26.633Z,2.05
2018-12-06T03:03:54.122Z,2.25
2018-12-06T03:06:21.540Z,2.20
2018-12-06T03:08:48.965Z,1.70
2018-12-06T03:11:16.393Z,1.10
2018-12-06T03:13:43.840Z,2.35
2018-12-06T03:16:11.253Z,1.95
2018-12-06T03:18:38.687Z,2.22
2018-12-06T03:21:06.164Z,2.47
2018-12-06T03:23:33.626Z,3.67
2018-12-06T03:26:01.056Z,1.92
2018-12-06T03:28:28.456Z,1.80
2018-12-06T03:30:55.888Z,1.90
2018-12-06T03:33:23.313Z,1.67
2018-12-06T03:35:50.802Z,2.30
2018-12-06T03:38:18.216Z,2.45
2018-12-06T03:40:45.649Z,2.03
2018-12-06T03:43:13.086Z,2.37
2018-12-06T03:45:41.478Z,2.37
2018-12-06T03:48:08.905Z,2.05
2018-12-06T03:50:36.362Z,2.22
2018-12-06T03:53:03.769Z,1.87
2018-12-06T03:55:31.465Z,1.70
2018-12-06T03:57:58.876Z,2.17
2018-12-06T04:00:26.299Z,2.00
2018-12-06T04:02:53.933Z,2.15
2018-12-06T04:05:21.331Z,1.90
2018-12-06T04:07:48.780Z,2.60
2018-12-06T04:10:16.232Z,2.25
2018-12-06T04:12:43.703Z,2.65
2018-12-06T04:15:11.141Z,1.90
2018-12-06T04:17:38.591Z,2.35
2018-12-06T04:20:06.004Z,2.47
2018-12-06T04:22:33.423Z,1.90
2018-12-06T04:25:00.828Z,2.60
2018-12-06T04:27:28.229Z,2.28
2018-12-06T04:29:55.649Z,2.25
2018-12-06T04:32:23.315Z,2.37
2018-12-06T04:34:50.720Z,2.15
2018-12-06T04:37:18.157Z,2.58
2018-12-06T04:39:45.578Z,2.35
2018-12-06T04:42:13.500Z,2.90
2018-12-06T04:44:40.925Z,3.42
2018-12-06T04:47:08.339Z,2.03
2018-12-06T04:49:35.739Z,2.70
2018-12-06T04:52:03.213Z,2.72
2018-12-06T04:54:30.759Z,2.92
2018-12-06T04:56:58.156Z,2.50
2018-12-06T04:59:25.617Z,2.80
2018-12-06T05:01:53.016Z,2.60
2018-12-06T05:04:20.421Z,3.40
2018-12-06T05:06:47.839Z,3.50
2018-12-06T05:09:15.256Z,3.47
2018-12-06T05:11:42.733Z,3.17
2018-12-06T05:14:10.173Z,4.70
2018-12-06T05:16:37.625Z,6.12
2018-12-06T05:19:05.058Z,4.37
2018-12-06T05:21:32.459Z,4.05
2018-12-06T05:23:59.865Z,4.10
2018-12-06T05:26:27.296Z,4.05
2018-12-06T05:28:54.688Z,2.45
2018-12-06T05:31:22.115Z,4.75
2018-12-06T05:33:49.542Z,3.30
2018-12-06T05:36:16.997Z,2.12
2018-12-06T05:38:44.459Z,3.80
2018-12-06T05:41:12.790Z,2.50
2018-12-06T05:43:40.185Z,3.42
2018-12-06T05:46:07.724Z,3.00
2018-12-06T05:48:35.168Z,3.30
2018-12-06T05:51:02.569Z,3.62
2018-12-06T05:53:29.957Z,2.95
2018-12-06T05:55:57.355Z,2.67
2018-12-06T05:58:24.879Z,2.92
2018-12-06T06:00:52.287Z,5.10
2018-12-06T06:03:19.708Z,3.20
2018-12-06T06:05:47.111Z,2.70
2018-12-06T06:08:14.888Z,4.03
2018-12-06T06:10:42.304Z,3.67
2018-12-06T06:13:10.070Z,3.45
2018-12-06T06:15:37.543Z,3.17
2018-12-06T06:18:05.032Z,4.20
2018-12-06T06:20:32.433Z,3.90
2018-12-06T06:22:59.949Z,4.60
2018-12-06T06:25:27.423Z,4.25
2018-12-06T06:27:54.820Z,4.62
2018-12-06T06:30:22.243Z,4.78
2018-12-06T06:32:49.648Z,6.30
2018-12-06T06:35:17.055Z,5.40
2018-12-06T06:37:44.472Z,4.45
2018-12-06T06:40:11.895Z,4.00
2018-12-06T06:42:39.325Z,5.53
2018-12-06T06:45:06.805Z,4.32
2018-12-06T06:47:35.111Z,4.87
2018-12-06T06:52:36.430Z,3.53
2018-12-06T06:55:03.836Z,5.57
2018-12-06T06:57:31.285Z,4.00
2018-12-06T06:59:58.720Z,4.05
2018-12-06T07:02:26.127Z,5.10
2018-12-06T07:04:53.524Z,4.15
2018-12-06T07:07:20.937Z,5.55
2018-12-06T07:09:48.364Z,6.30
2018-12-06T07:12:15.797Z,4.20
2018-12-06T07:14:43.206Z,4.30
2018-12-06T07:17:10.642Z,5.05
2018-12-06T07:19:38.064Z,4.53
2018-12-06T07:22:06.045Z,3.60
2018-12-06T07:24:33.500Z,3.20
2018-12-06T07:27:00.996Z,4.32
2018-12-06T07:29:28.388Z,3.42
2018-12-06T07:31:55.828Z,2.80
2018-12-06T07:34:23.270Z,2.92
2018-12-06T07:36:50.684Z,3.67
2018-12-06T07:39:18.080Z,4.35
2018-12-06T07:41:45.519Z,4.97
2018-12-06T07:44:12.915Z,3.00
2018-12-06T07:46:40.354Z,3.42
2018-12-06T07:49:07.861Z,3.15
2018-12-06T07:51:35.361Z,4.10
2018-12-06T07:54:02.776Z,2.95
2018-12-06T07:56:30.384Z,4.22
2018-12-06T07:58:57.848Z,3.03
2018-12-06T08:01:26.031Z,3.87
2018-12-06T08:03:53.464Z,3.65
2018-12-06T08:06:21.952Z,3.75
2018-12-06T08:08:49.397Z,4.80
2018-12-06T08:11:16.802Z,3.70
2018-12-06T08:13:44.227Z,5.20
2018-12-06T08:16:11.654Z,4.50
2018-12-06T08:18:40.565Z,4.60
2018-12-06T08:21:08.565Z,3.70
2018-12-06T08:23:35.981Z,3.08
2018-12-06T08:26:03.389Z,3.60
2018-12-06T08:28:30.807Z,3.67
2018-12-06T08:30:58.363Z,6.65
2018-12-06T08:33:26.030Z,3.87
2018-12-06T08:35:54.403Z,2.95
2018-12-06T08:38:22.264Z,2.87
2018-12-06T08:40:49.849Z,2.95
2018-12-06T08:43:17.246Z,3.10
2018-12-06T08:45:44.689Z,4.25
2018-12-06T08:48:12.094Z,3.87
2018-12-06T08:50:39.500Z,2.62
2018-12-06T08:53:11.844Z,3.72
2018-12-06T08:55:39.283Z,2.80
2018-12-06T08:58:06.917Z,3.35
2018-12-06T09:00:34.409Z,2.75
2018-12-06T09:03:01.829Z,5.00
2018-12-06T09:05:29.224Z,3.72
2018-12-06T09:07:56.656Z,3.80
2018-12-06T09:10:24.050Z,3.30
2018-12-06T09:12:51.486Z,2.30
2018-12-06T09:15:18.937Z,2.78
2018-12-06T09:17:46.370Z,3.20
2018-12-06T09:20:13.805Z,4.05
2018-12-06T09:22:41.216Z,2.37
2018-12-06T09:25:08.612Z,2.37
2018-12-06T09:27:36.033Z,2.58
2018-12-06T09:30:03.902Z,3.10
2018-12-06T09:32:31.299Z,2.72
2018-12-06T09:34:58.698Z,2.83
2018-12-06T09:37:26.152Z,2.90
2018-12-06T09:39:56.253Z,3.70
2018-12-06T09:42:23.641Z,2.85
2018-12-06T09:44:51.055Z,2.90
2018-12-06T09:47:18.544Z,2.62
2018-12-06T09:49:45.941Z,1.80
2018-12-06T09:52:13.376Z,2.40
2018-12-06T09:54:40.853Z,2.78
2018-12-06T09:57:08.256Z,2.15
2018-12-06T09:59:35.893Z,1.80
2018-12-06T10:02:03.373Z,2.53
2018-12-06T10:04:30.803Z,1.80
2018-12-06T10:06:58.211Z,4.07
2018-12-06T10:09:25.631Z,3.28
2018-12-06T10:11:53.197Z,2.65
2018-12-06T10:14:20.689Z,2.58
2018-12-06T10:16:48.133Z,2.33
2018-12-06T10:19:15.533Z,2.05
2018-12-06T10:21:43.986Z,2.67
2018-12-06T10:24:11.403Z,1.90
2018-12-06T10:26:38.827Z,1.33
2018-12-06T10:29:06.600Z,2.10
2018-12-06T10:31:34.029Z,1.90
2018-12-06T10:34:01.468Z,2.33
2018-12-06T10:36:29.483Z,2.50
2018-12-06T10:38:56.901Z,1.75
2018-12-06T10:41:24.356Z,2.35
2018-12-06T10:43:51.758Z,1.90
2018-12-06T10:46:19.167Z,1.42
2018-12-06T10:48:47.456Z,1.70
2018-12-06T10:51:26.727Z,1.83
2018-12-06T10:53:54.184Z,1.62
2018-12-06T10:56:21.684Z,1.73
2018-12-06T10:58:50.059Z,1.25
2018-12-06T11:01:17.464Z,2.20
2018-12-06T11:03:50.542Z,0.95
2018-12-06T11:06:18.009Z,1.40
2018-12-06T11:08:45.461Z,1.20
2018-12-06T11:11:13.233Z,1.20
2018-12-06T11:13:41.436Z,1.15
2018-12-06T11:16:08.917Z,1.23
2018-12-06T11:18:36.368Z,1.77
2018-12-06T11:21:03.938Z,2.50
2018-12-06T11:23:31.351Z,2.60
2018-12-06T11:25:58.782Z,1.70
2018-12-06T11:28:26.277Z,2.20
2018-12-06T11:30:54.713Z,1.73
2018-12-06T11:33:22.181Z,1.23
2018-12-06T11:35:50.856Z,2.55
2018-12-06T11:38:18.286Z,1.08
2018-12-06T11:40:45.791Z,1.45
2018-12-06T11:43:13.227Z,3.00
2018-12-06T11:45:40.625Z,1.52
2018-12-06T11:48:08.041Z,0.90
2018-12-06T11:50:35.868Z,1.02
2018-12-06T11:53:03.663Z,1.30
2018-12-06T11:55:31.325Z,1.05
2018-12-06T11:57:58.637Z,1.55
2018-12-06T12:00:26.283Z,1.10
2018-12-06T12:02:53.641Z,2.30
2018-12-06T12:05:22.039Z,1.50
2018-12-06T12:07:49.471Z,2.10
2018-12-06T12:10:16.888Z,1.55
2018-12-06T12:12:45.040Z,1.42
2018-12-06T12:15:12.432Z,1.65
2018-12-06T12:17:39.930Z,1.67
2018-12-06T12:20:07.402Z,1.37
2018-12-06T12:22:34.819Z,1.80
2018-12-06T12:25:02.243Z,1.20
2018-12-06T12:27:29.671Z,1.62
2018-12-06T12:29:57.204Z,2.20
2018-12-06T12:32:24.607Z,1.70
2018-12-06T12:34:52.149Z,2.20
2018-12-06T12:37:19.570Z,1.20
2018-12-06T12:39:47.026Z,1.90
2018-12-06T12:42:14.680Z,1.65
2018-12-06T12:44:42.086Z,1.30
2018-12-06T12:47:09.809Z,1.40
2018-12-06T12:49:37.213Z,1.42
2018-12-06T12:52:04.772Z,7.10
2018-12-06T12:54:33.200Z,5.20
2018-12-06T12:57:00.628Z,1.87
2018-12-06T12:59:28.059Z,3.70
2018-12-06T13:01:55.468Z,1.00
2018-12-06T13:04:22.876Z,2.40
2018-12-06T13:06:50.315Z,1.30
2018-12-06T13:09:17.758Z,2.97
2018-12-06T13:11:45.770Z,1.40
2018-12-06T13:14:13.225Z,2.22
2018-12-06T13:16:40.622Z,3.97
2018-12-06T13:19:08.035Z,2.65
2018-12-06T13:21:35.539Z,1.40
2018-12-06T13:24:02.940Z,1.50
2018-12-06T13:26:30.392Z,1.42
2018-12-06T13:28:57.820Z,1.60
2018-12-06T13:31:25.299Z,1.73
2018-12-06T13:33:52.745Z,2.55
2018-12-06T13:36:20.189Z,2.05
2018-12-06T13:38:47.622Z,1.70
2018-12-06T13:41:15.074Z,1.50
2018-12-06T13:43:42.578Z,1.30
2018-12-06T13:46:10.030Z,1.55
2018-12-06T13:48:37.403Z,1.83
2018-12-06T13:51:04.843Z,1.45
2018-12-06T13:53:32.904Z,1.80
2018-12-06T13:56:00.303Z,1.80
2018-12-06T13:58:27.720Z,1.20
2018-12-06T14:00:55.520Z,1.85
2018-12-06T14:03:23.714Z,1.60
2018-12-06T14:05:51.159Z,1.55
2018-12-06T14:08:18.709Z,2.10
2018-12-06T14:10:46.122Z,1.70
2018-12-06T14:13:13.510Z,1.95
2018-12-06T14:15:40.963Z,2.75
2018-12-06T14:18:08.453Z,1.52
2018-12-06T14:20:35.875Z,3.22
2018-12-06T14:23:03.284Z,3.15
2018-12-06T14:25:30.697Z,2.10
2018-12-06T14:27:58.117Z,2.37
2018-12-06T14:30:25.679Z,2.10
2018-12-06T14:32:53.109Z,2.08
2018-12-06T14:35:20.511Z,1.50
2018-12-06T14:37:47.924Z,2.03
2018-12-06T14:40:15.406Z,2.25
2018-12-06T14:42:43.810Z,3.78
2018-12-06T14:45:11.511Z,2.17
2018-12-06T14:47:38.944Z,2.47
2018-12-06T14:50:06.429Z,2.85
2018-12-06T14:52:34.870Z,2.03
2018-12-06T14:55:02.474Z,2.37
2018-12-06T14:57:29.952Z,2.25
2018-12-06T14:59:57.651Z,2.10
2018-12-06T15:02:25.531Z,2.83
2018-12-06T15:04:52.958Z,1.40
2018-12-06T15:07:20.795Z,2.10
2018-12-06T15:09:48.525Z,2.50
2018-12-06T15:12:15.932Z,2.35
2018-12-06T15:14:43.366Z,2.28
2018-12-06T15:17:11.810Z,2.10
2018-12-06T15:19:40.135Z,1.67
2018-12-06T15:22:07.546Z,1.75
2018-12-06T15:24:35.002Z,1.83
2018-12-06T15:27:02.415Z,2.80
2018-12-06T15:29:29.807Z,2.97
2018-12-06T15:31:57.345Z,2.60
2018-12-06T15:34:24.755Z,2.25
2018-12-06T15:36:52.192Z,1.83
2018-12-06T15:39:20.000Z,2.08
2018-12-06T15:41:47.501Z,2.10
2018-12-06T15:44:14.966Z,1.52
2018-12-06T15:46:42.441Z,2.53
2018-12-06T15:49:09.936Z,1.83
2018-12-06T15:51:37.565Z,2.50
2018-12-06T15:54:05.136Z,1.90
2018-12-06T15:56:32.555Z,1.65
2018-12-06T15:59:00.076Z,2.58
2018-12-06T16:01:27.516Z,2.10
2018-12-06T16:03:54.927Z,1.20
2018-12-06T16:06:22.357Z,1.48
2018-12-06T16:08:50.242Z,1.42
2018-12-06T16:11:17.684Z,1.45
2018-12-06T16:13:45.163Z,1.65
2018-12-06T16:16:12.683Z,2.17
2018-12-06T16:18:40.341Z,4.05
2018-12-06T16:21:08.042Z,4.05
2018-12-06T16:23:36.710Z,1.60
2018-12-06T16:26:04.140Z,2.00
2018-12-06T16:28:31.558Z,1.90
2018-12-06T16:30:58.977Z,1.10
2018-12-06T16:33:26.389Z,2.03
2018-12-06T16:35:53.806Z,1.20
2018-12-06T16:38:21.358Z,1.05
2018-12-06T16:40:48.759Z,1.65
2018-12-06T16:43:16.165Z,2.17
2018-12-06T16:45:43.776Z,2.20
2018-12-06T16:48:11.853Z,1.52
2018-12-06T16:50:39.386Z,2.72
2018-12-06T16:53:06.994Z,1.85
2018-12-06T16:55:34.403Z,1.42
2018-12-06T16:58:02.523Z,1.92
2018-12-06T17:00:30.041Z,2.17
2018-12-06T17:02:58.379Z,1.80
2018-12-06T17:05:25.875Z,1.80
2018-12-06T17:07:53.370Z,3.37
2018-12-06T17:10:20.783Z,2.75
2018-12-06T17:12:48.235Z,2.65
2018-12-06T17:15:16.501Z,2.22
2018-12-06T17:17:43.906Z,2.20
2018-12-06T17:20:11.379Z,2.40
2018-12-06T17:22:38.790Z,3.78
2018-12-06T17:25:06.212Z,2.50
2018-12-06T17:27:33.639Z,2.78
2018-12-06T17:30:01.134Z,2.35
2018-12-06T17:32:28.571Z,2.15
2018-12-06T17:34:56.146Z,2.10
2018-12-06T17:37:24.565Z,3.17
2018-12-06T17:39:51.982Z,2.45
2018-12-06T17:42:19.433Z,3.70
2018-12-06T17:44:46.852Z,3.12
2018-12-06T17:47:14.352Z,2.75
2018-12-06T17:49:41.753Z,2.20
2018-12-06T17:52:09.183Z,3.85
2018-12-06T17:54:36.823Z,2.60
2018-12-06T17:57:04.219Z,3.08
2018-12-06T17:59:31.698Z,3.35
2018-12-06T18:01:59.125Z,2.90
2018-12-06T18:04:26.597Z,4.12
2018-12-06T18:06:54.031Z,3.10
2018-12-06T18:09:21.589Z,3.95
2018-12-06T18:11:49.166Z,4.12
2018-12-06T18:14:18.907Z,3.47
2018-12-06T18:16:47.690Z,4.00
2018-12-06T18:19:15.119Z,3.47
2018-12-06T18:21:42.560Z,4.07
2018-12-06T18:24:10.024Z,3.30
2018-12-06T18:26:37.487Z,3.08
2018-12-06T18:29:05.130Z,5.12
2018-12-06T18:31:32.533Z,3.80
2018-12-06T18:33:59.936Z,4.53
2018-12-06T18:36:27.342Z,5.20
2018-12-06T18:38:54.821Z,5.15
2018-12-06T18:41:22.859Z,6.07
2018-12-06T18:43:50.262Z,4.25
2018-12-06T18:46:18.562Z,3.20
2018-12-06T18:48:45.979Z,5.20
2018-12-06T18:51:13.393Z,6.18
2018-12-06T18:53:40.811Z,4.85
2018-12-06T18:56:08.318Z,5.78
2018-12-06T18:58:36.486Z,4.18
2018-12-06T19:01:03.909Z,5.85
2018-12-06T19:03:31.360Z,3.95
2018-12-06T19:05:58.765Z,5.03
2018-12-06T19:08:26.200Z,4.12
2018-12-06T19:10:53.836Z,3.80
2018-12-06T19:13:21.324Z,3.53
2018-12-06T19:15:48.996Z,3.47
2018-12-06T19:18:16.393Z,3.92
2018-12-06T19:20:43.941Z,3.80
2018-12-06T19:23:11.971Z,3.50
2018-12-06T19:25:39.473Z,4.25
2018-12-06T19:28:06.904Z,3.97
2018-12-06T19:30:37.249Z,5.07
2018-12-06T19:33:03.417Z,4.72
2018-12-06T19:35:30.672Z,3.30
2018-12-06T19:37:58.112Z,3.62
2018-12-06T19:40:25.562Z,3.92
2018-12-06T19:42:53.096Z,3.00
2018-12-06T19:45:20.488Z,3.47
2018-12-06T19:47:48.349Z,3.53
2018-12-06T19:50:16.046Z,3.78
2018-12-06T19:52:43.531Z,3.12
2018-12-06T19:55:10.894Z,5.07
2018-12-06T19:57:38.315Z,5.37
2018-12-06T20:00:05.727Z,4.50
2018-12-06T20:02:33.211Z,4.78
2018-12-06T20:05:00.629Z,3.85
2018-12-06T20:07:28.036Z,4.62
2018-12-06T20:09:55.467Z,4.90
2018-12-06T20:12:23.036Z,3.95
2018-12-06T20:14:50.452Z,5.45
2018-12-06T20:17:18.611Z,4.87
2018-12-06T20:19:46.207Z,4.80
2018-12-06T20:22:13.649Z,5.50
2018-12-06T20:24:41.192Z,4.75
2018-12-06T20:27:08.609Z,6.57
2018-12-06T20:29:36.656Z,7.62
2018-12-06T20:32:04.074Z,5.25
2018-12-06T20:34:31.635Z,6.43
2018-12-06T20:36:59.524Z,6.55
2018-12-06T20:39:26.947Z,7.35
2018-12-06T20:41:54.364Z,7.22
2018-12-06T20:44:21.770Z,4.40
2018-12-06T20:46:49.399Z,5.75
2018-12-06T20:49:16.912Z,5.70
2018-12-06T20:51:44.344Z,4.50
2018-12-06T20:54:11.772Z,5.18
2018-12-06T20:56:39.219Z,7.18
2018-12-06T20:59:06.620Z,6.35
2018-12-06T21:01:34.129Z,6.47
2018-12-06T21:04:01.569Z,6.78
2018-12-06T21:06:28.977Z,7.28
2018-12-06T21:08:56.392Z,7.10
2018-12-06T21:11:23.984Z,5.90
2018-12-06T21:13:51.547Z,7.20
2018-12-06T21:16:19.397Z,5.68
2018-12-06T21:18:46.836Z,6.85
2018-12-06T21:21:14.413Z,7.80
2018-12-06T21:23:42.458Z,6.25
2018-12-06T21:26:10.781Z,7.15
2018-12-06T21:28:39.280Z,7.25
2018-12-06T21:31:06.707Z,6.07
2018-12-06T21:33:34.125Z,6.87
2018-12-06T21:36:02.154Z,8.35
2018-12-06T21:38:29.561Z,5.93
2018-12-06T21:40:57.031Z,7.62
2018-12-06T21:43:24.427Z,5.47
2018-12-06T21:45:51.997Z,7.22
2018-12-06T21:48:19.444Z,5.68
2018-12-06T21:50:46.900Z,6.03
2018-12-06T21:53:14.318Z,6.15
2018-12-06T21:55:41.829Z,6.40
2018-12-06T21:58:09.354Z,7.10
2018-12-06T22:00:37.941Z,6.68
2018-12-06T22:03:05.356Z,5.40
2018-12-06T22:05:33.131Z,7.05
2018-12-06T22:08:00.615Z,6.62
2018-12-06T22:10:28.037Z,5.62
2018-12-06T22:12:56.223Z,7.40
2018-12-06T22:15:23.631Z,5.43
2018-12-06T22:17:51.044Z,3.45
2018-12-06T22:20:18.510Z,5.40
2018-12-06T22:22:46.000Z,4.55
2018-12-06T22:25:13.416Z,5.82
2018-12-06T22:27:40.903Z,4.57
2018-12-06T22:30:08.319Z,5.57
2018-12-06T22:32:35.751Z,4.65
2018-12-06T22:35:03.845Z,5.47
2018-12-06T22:37:31.315Z,4.93
2018-12-06T22:39:58.800Z,4.75
2018-12-06T22:42:27.334Z,4.97
2018-12-06T22:44:54.724Z,4.65
2018-12-06T22:47:22.166Z,6.53
2018-12-06T22:49:49.604Z,4.57
2018-12-06T22:52:17.056Z,7.05
2018-12-06T22:54:44.469Z,5.80
2018-12-06T22:57:11.888Z,4.97
2018-12-06T22:59:39.291Z,5.03
2018-12-06T23:02:06.890Z,5.20
2018-12-06T23:04:36.741Z,6.78
2018-12-06T23:07:05.814Z,4.53
2018-12-06T23:09:31.653Z,6.30
2018-12-06T23:11:59.077Z,4.07
2018-12-06T23:14:27.232Z,4.70
2018-12-06T23:16:54.648Z,4.10
2018-12-06T23:19:22.056Z,3.85
2018-12-06T23:21:49.505Z,4.35
2018-12-06T23:24:16.883Z,5.32
2018-12-06T23:26:44.314Z,3.80
2018-12-06T23:29:11.965Z,4.95
2018-12-06T23:31:39.360Z,3.10
2018-12-06T23:34:06.794Z,3.70
2018-12-06T23:36:35.017Z,5.68
2018-12-06T23:39:02.452Z,3.67
2018-12-06T23:41:30.001Z,4.05
2018-12-06T23:43:57.447Z,4.03
2018-12-06T23:46:24.918Z,4.53
2018-12-06T23:48:53.194Z,2.70
2018-12-06T23:51:35.183Z,3.30
2018-12-06T23:54:02.606Z,4.10
2018-12-06T23:56:30.324Z,4.05
2018-12-06T23:58:57.739Z,2.60
